Time;durP1;ratioP1;P1;durP2;ratioP2;P2;SDS_P1;SDS_P2;PMS_P1;PMS_P2;Temp;Humidity;BMP_temperature;BMP_pressure;BME280_temperature;BME280_humidity;BME280_pressure;Samples;Min_cycle;Max_cycle;Signal;HPM_P1;HPM_P2
2021/12/13 00:00:39;;;;;;;8.65;3.85;;;;;;;;;;5017650;28;20022;-73
2021/12/13 00:03:11;;;;;;;6.95;4.30;;;;;;;;;;4996052;28;20042;-74
2021/12/13 00:05:46;;;;;;;7.40;3.20;;;;;;;;;;5017878;28;20037;-75
2021/12/13 00:08:16;;;;;;;7.10;2.88;;;;;;;;;;5016935;28;20476;-74
2021/12/13 00:10:45;;;;;;;4.22;2.38;;;;;;;;;;5000238;28;20113;-74
2021/12/13 00:13:22;;;;;;;8.82;2.80;;;;;;;;;;4997094;28;20041;-75
2021/12/13 00:15:50;;;;;;;6.55;2.60;;;;;;;;;;5000547;28;20022;-73
2021/12/13 00:18:18;;;;;;;7.80;2.80;;;;;;;;;;4999071;28;20036;-75
2021/12/13 00:20:46;;;;;;;10.40;2.95;;;;;;;;;;4997456;28;20029;-74
2021/12/13 00:23:37;;;;;;;8.90;3.30;;;;;;;;;;4996897;28;20057;-76
2021/12/13 00:26:05;;;;;;;9.38;5.00;;;;;;;;;;5006913;28;20105;-75
2021/12/13 00:28:40;;;;;;;11.93;6.53;;;;;;;;;;5016205;28;20065;-74
2021/12/13 00:31:29;;;;;;;14.13;5.82;;;;;;;;;;5018357;28;20049;-74
2021/12/13 00:34:01;;;;;;;7.55;4.53;;;;;;;;;;5016552;28;20033;-74
2021/12/13 00:36:34;;;;;;;10.75;4.68;;;;;;;;;;5002820;28;20023;-75
2021/12/13 00:39:08;;;;;;;6.97;4.00;;;;;;;;;;4998249;28;20101;-75
2021/12/13 00:41:35;;;;;;;11.35;3.67;;;;;;;;;;4996386;28;20041;-76
2021/12/13 00:44:06;;;;;;;5.82;2.95;;;;;;;;;;5011063;28;20088;-74
2021/12/13 00:46:34;;;;;;;16.20;2.50;;;;;;;;;;5016703;28;20325;-74
2021/12/13 00:49:01;;;;;;;4.18;2.40;;;;;;;;;;5016306;28;20022;-73
2021/12/13 00:51:29;;;;;;;10.35;2.60;;;;;;;;;;5016749;28;20101;-75
2021/12/13 00:53:57;;;;;;;6.80;3.13;;;;;;;;;;5004670;28;20117;-74
2021/12/13 00:56:45;;;;;;;9.63;3.00;;;;;;;;;;4996519;28;20045;-74
2021/12/13 00:59:31;;;;;;;8.70;2.88;;;;;;;;;;4996950;28;20097;-74
2021/12/13 01:02:16;;;;;;;7.57;2.28;;;;;;;;;;4996941;28;20084;-74
2021/12/13 01:04:54;;;;;;;6.63;2.80;;;;;;;;;;5014443;28;20446;-74
2021/12/13 01:07:38;;;;;;;8.60;3.00;;;;;;;;;;5016151;28;20022;-73
2021/12/13 01:10:07;;;;;;;7.53;2.50;;;;;;;;;;5015959;28;20054;-74
2021/12/13 01:12:34;;;;;;;11.30;3.70;;;;;;;;;;5002355;28;20077;-73
2021/12/13 01:15:14;;;;;;;9.55;2.17;;;;;;;;;;4996205;28;20417;-73
2021/12/13 01:21:02;;;;;;;8.00;2.17;;;;;;;;;;4987872;28;20548;-74
2021/12/13 01:26:38;;;;;;;7.97;2.60;;;;;;;;;;4967801;28;20050;-74
2021/12/13 01:29:16;;;;;;;7.32;3.13;;;;;;;;;;4977344;28;20042;-74
2021/12/13 01:31:47;;;;;;;8.00;2.47;;;;;;;;;;4987857;28;20361;-76
2021/12/13 01:34:14;;;;;;;9.48;2.22;;;;;;;;;;5015379;28;20018;-74
2021/12/13 01:36:50;;;;;;;9.10;3.45;;;;;;;;;;5016381;28;20030;-74
2021/12/13 01:39:20;;;;;;;8.85;3.60;;;;;;;;;;5015476;28;20045;-74
2021/12/13 01:41:51;;;;;;;7.00;2.42;;;;;;;;;;5009035;28;20097;-74
2021/12/13 01:44:19;;;;;;;6.28;2.85;;;;;;;;;;4996053;28;20540;-76
2021/12/13 01:46:48;;;;;;;8.32;2.55;;;;;;;;;;4995778;28;20037;-74
2021/12/13 01:49:14;;;;;;;4.28;2.65;;;;;;;;;;4995752;28;20075;-75
2021/12/13 01:51:41;;;;;;;6.82;2.88;;;;;;;;;;5014883;28;20036;-74
2021/12/13 01:54:14;;;;;;;5.95;2.08;;;;;;;;;;5015092;28;20104;-75
2021/12/13 01:56:52;;;;;;;6.18;3.75;;;;;;;;;;5015580;28;20037;-74
2021/12/13 02:02:02;;;;;;;6.80;2.40;;;;;;;;;;4976258;28;20039;-76
2021/12/13 02:04:28;;;;;;;7.80;2.88;;;;;;;;;;4976332;28;20034;-76
2021/12/13 02:07:00;;;;;;;6.95;2.40;;;;;;;;;;4976208;28;20046;-74
2021/12/13 02:09:29;;;;;;;6.68;2.38;;;;;;;;;;5004008;28;20441;-73
2021/12/13 02:11:58;;;;;;;5.03;2.03;;;;;;;;;;4995432;28;20033;-74
2021/12/13 02:14:27;;;;;;;6.82;2.70;;;;;;;;;;4994107;28;20370;-76
2021/12/13 02:19:24;;;;;;;9.55;2.42;;;;;;;;;;5007433;28;20461;-75
2021/12/13 02:21:57;;;;;;;8.23;2.70;;;;;;;;;;5015354;28;20124;-75
2021/12/13 02:24:24;;;;;;;12.32;3.45;;;;;;;;;;5014870;28;20465;-74
2021/12/13 02:26:57;;;;;;;6.55;3.38;;;;;;;;;;5015008;28;20022;-74
2021/12/13 02:29:34;;;;;;;8.02;2.47;;;;;;;;;;5014147;28;20018;-74
2021/12/13 02:32:00;;;;;;;3.78;2.20;;;;;;;;;;5013855;28;20018;-74
2021/12/13 02:34:29;;;;;;;7.07;2.20;;;;;;;;;;5015216;28;20022;-74
2021/12/13 02:36:56;;;;;;;7.85;2.28;;;;;;;;;;5014808;28;20026;-74
2021/12/13 02:39:28;;;;;;;7.32;2.50;;;;;;;;;;5001272;28;20046;-74
2021/12/13 02:41:56;;;;;;;5.72;2.05;;;;;;;;;;4994404;28;20113;-75
2021/12/13 02:44:24;;;;;;;5.07;1.90;;;;;;;;;;4995360;28;20057;-74
2021/12/13 02:46:51;;;;;;;4.10;2.65;;;;;;;;;;4994145;28;20492;-74
2021/12/13 02:49:18;;;;;;;7.18;2.60;;;;;;;;;;4995579;28;20100;-74
2021/12/13 02:51:48;;;;;;;10.15;3.35;;;;;;;;;;5009688;28;20080;-75
2021/12/13 02:54:17;;;;;;;3.65;2.22;;;;;;;;;;5012766;28;20042;-75
2021/12/13 02:56:52;;;;;;;7.47;2.40;;;;;;;;;;5012973;28;20034;-74
2021/12/13 02:59:20;;;;;;;7.38;2.17;;;;;;;;;;5013827;28;20026;-73
2021/12/13 03:01:58;;;;;;;7.70;2.30;;;;;;;;;;4999573;28;20374;-74
2021/12/13 03:04:26;;;;;;;6.70;2.63;;;;;;;;;;4994450;28;20019;-74
2021/12/13 03:06:58;;;;;;;7.70;2.75;;;;;;;;;;4994389;28;20085;-74
2021/12/13 03:09:26;;;;;;;9.88;2.85;;;;;;;;;;4994682;28;20027;-74
2021/12/13 03:11:53;;;;;;;10.30;4.68;;;;;;;;;;5009025;28;20045;-75
2021/12/13 03:14:22;;;;;;;10.48;2.80;;;;;;;;;;5013577;28;20037;-75
2021/12/13 03:16:54;;;;;;;7.57;2.50;;;;;;;;;;5013537;28;20409;-75
2021/12/13 03:19:29;;;;;;;7.80;2.50;;;;;;;;;;5014149;28;20026;-75
2021/12/13 03:22:14;;;;;;;9.15;2.30;;;;;;;;;;4999202;28;20034;-74
2021/12/13 03:24:48;;;;;;;6.20;2.53;;;;;;;;;;4999231;28;20022;-73
2021/12/13 03:27:23;;;;;;;5.60;2.63;;;;;;;;;;4993812;28;20023;-76
2021/12/13 03:30:12;;;;;;;4.90;2.47;;;;;;;;;;4994351;28;20482;-74
2021/12/13 03:33:01;;;;;;;6.18;2.30;;;;;;;;;;4998391;28;20107;-74
2021/12/13 03:35:36;;;;;;;5.85;2.13;;;;;;;;;;4989712;28;20045;-74
2021/12/13 03:38:26;;;;;;;5.60;2.25;;;;;;;;;;4997956;28;20485;-75
2021/12/13 03:40:53;;;;;;;6.60;2.35;;;;;;;;;;4998447;28;20378;-76
2021/12/13 03:43:24;;;;;;;6.82;2.08;;;;;;;;;;4998117;28;20038;-74
2021/12/13 03:45:52;;;;;;;12.40;3.75;;;;;;;;;;4997723;28;20022;-73
2021/12/13 03:48:20;;;;;;;9.50;3.70;;;;;;;;;;4997642;28;20363;-74
2021/12/13 03:50:49;;;;;;;9.02;2.53;;;;;;;;;;4997526;28;20442;-74
2021/12/13 03:53:26;;;;;;;5.45;2.20;;;;;;;;;;5005256;28;20041;-76
2021/12/13 03:56:04;;;;;;;7.43;2.55;;;;;;;;;;5017363;28;20025;-74
2021/12/13 03:58:33;;;;;;;6.13;2.40;;;;;;;;;;5016948;28;20101;-74
2021/12/13 04:01:03;;;;;;;6.75;2.00;;;;;;;;;;5018321;28;20029;-73
2021/12/13 04:03:33;;;;;;;8.40;2.38;;;;;;;;;;5006968;28;20030;-73
2021/12/13 04:06:00;;;;;;;10.25;2.50;;;;;;;;;;4997148;28;20023;-74
2021/12/13 04:08:36;;;;;;;5.57;2.97;;;;;;;;;;4998254;28;20033;-74
2021/12/13 04:11:06;;;;;;;6.75;2.25;;;;;;;;;;4998129;28;20034;-74
2021/12/13 04:13:38;;;;;;;8.18;2.50;;;;;;;;;;4997523;28;20489;-75
2021/12/13 04:16:17;;;;;;;8.50;2.33;;;;;;;;;;5001679;28;20118;-74
2021/12/13 04:21:21;;;;;;;9.18;3.03;;;;;;;;;;5017003;28;20550;-74
2021/12/13 04:23:51;;;;;;;8.88;4.10;;;;;;;;;;5016938;28;20072;-75
2021/12/13 04:26:17;;;;;;;6.47;2.45;;;;;;;;;;5003233;28;20105;-75
2021/12/13 04:28:47;;;;;;;6.70;2.45;;;;;;;;;;4997407;28;20031;-73
2021/12/13 04:31:16;;;;;;;7.90;2.92;;;;;;;;;;4997101;28;20014;-74
2021/12/13 04:33:44;;;;;;;9.75;2.60;;;;;;;;;;4996003;28;20030;-75
2021/12/13 04:36:13;;;;;;;6.50;2.40;;;;;;;;;;5007991;28;20034;-73
2021/12/13 04:38:59;;;;;;;7.90;2.30;;;;;;;;;;5015083;28;20357;-75
2021/12/13 04:41:37;;;;;;;8.60;2.42;;;;;;;;;;5014791;28;20034;-74
2021/12/13 04:44:10;;;;;;;5.25;2.15;;;;;;;;;;5014918;28;20024;-74
2021/12/13 04:46:37;;;;;;;8.32;2.72;;;;;;;;;;4998306;28;20209;-73
2021/12/13 04:49:11;;;;;;;7.22;2.60;;;;;;;;;;4995887;28;20019;-74
2021/12/13 04:51:45;;;;;;;8.55;2.40;;;;;;;;;;4996455;28;20469;-74
2021/12/13 04:54:12;;;;;;;4.68;2.35;;;;;;;;;;4996377;28;20057;-75
2021/12/13 04:56:42;;;;;;;7.63;2.90;;;;;;;;;;5013574;28;20037;-73
2021/12/13 04:59:10;;;;;;;10.38;2.67;;;;;;;;;;5015989;28;20048;-73
2021/12/13 05:01:36;;;;;;;9.63;2.50;;;;;;;;;;5016903;28;20561;-74
2021/12/13 05:04:04;;;;;;;13.05;2.92;;;;;;;;;;5015335;28;20109;-74
2021/12/13 05:06:32;;;;;;;9.35;2.72;;;;;;;;;;4995934;28;20173;-74
2021/12/13 05:08:59;;;;;;;11.40;3.28;;;;;;;;;;4995743;28;20026;-73
2021/12/13 05:11:30;;;;;;;6.38;2.22;;;;;;;;;;5005186;28;20030;-74
2021/12/13 05:13:59;;;;;;;4.70;2.05;;;;;;;;;;5015046;28;20109;-74
2021/12/13 05:16:36;;;;;;;4.05;2.10;;;;;;;;;;5016397;28;20140;-73
2021/12/13 05:19:03;;;;;;;9.50;2.88;;;;;;;;;;5016573;28;20042;-74
2021/12/13 05:21:50;;;;;;;6.90;2.50;;;;;;;;;;5004100;28;20084;-74
2021/12/13 05:24:19;;;;;;;6.28;2.35;;;;;;;;;;4995799;28;20085;-73
2021/12/13 05:26:45;;;;;;;6.72;2.65;;;;;;;;;;4995824;28;20050;-73
2021/12/13 05:29:30;;;;;;;6.22;2.60;;;;;;;;;;4996239;28;20026;-74
2021/12/13 05:31:59;;;;;;;6.60;2.13;;;;;;;;;;5008558;28;20026;-75
2021/12/13 05:34:30;;;;;;;9.50;2.85;;;;;;;;;;5014304;28;20077;-74
2021/12/13 05:36:57;;;;;;;8.63;2.40;;;;;;;;;;5014497;28;20032;-75
2021/12/13 05:39:23;;;;;;;8.45;3.55;;;;;;;;;;5015390;28;20485;-74
2021/12/13 05:41:54;;;;;;;11.40;2.90;;;;;;;;;;5001869;28;20462;-74
2021/12/13 05:44:25;;;;;;;8.75;2.53;;;;;;;;;;4995071;28;20018;-74
2021/12/13 05:46:51;;;;;;;7.53;3.03;;;;;;;;;;4995639;28;20378;-74
2021/12/13 05:49:23;;;;;;;6.10;2.38;;;;;;;;;;4993461;28;20029;-74
2021/12/13 05:51:51;;;;;;;5.90;2.35;;;;;;;;;;5006814;28;20026;-73
2021/12/13 05:54:25;;;;;;;11.57;3.08;;;;;;;;;;5013821;28;20045;-76
2021/12/13 05:57:09;;;;;;;6.97;2.50;;;;;;;;;;5013605;28;20026;-74
2021/12/13 05:59:37;;;;;;;8.95;2.40;;;;;;;;;;5013204;28;20053;-77
2021/12/13 06:02:07;;;;;;;4.80;2.00;;;;;;;;;;5000168;28;20539;-73
2021/12/13 06:04:43;;;;;;;8.23;2.40;;;;;;;;;;4994336;28;20433;-74
2021/12/13 06:07:14;;;;;;;6.20;2.95;;;;;;;;;;4995156;28;20022;-74
2021/12/13 06:09:40;;;;;;;10.80;2.97;;;;;;;;;;4995530;28;20381;-75
2021/12/13 06:12:08;;;;;;;8.90;2.53;;;;;;;;;;5006339;28;20120;-74
2021/12/13 06:14:35;;;;;;;5.32;3.58;;;;;;;;;;5014606;28;20042;-73
2021/12/13 06:17:06;;;;;;;9.65;2.38;;;;;;;;;;5013289;28;20026;-74
2021/12/13 06:19:35;;;;;;;6.47;3.35;;;;;;;;;;5014463;28;20037;-74
2021/12/13 06:22:01;;;;;;;7.07;2.30;;;;;;;;;;5000703;28;20034;-75
2021/12/13 06:24:29;;;;;;;9.32;2.60;;;;;;;;;;4994697;28;20026;-74
2021/12/13 06:27:02;;;;;;;4.80;2.30;;;;;;;;;;4994404;28;20022;-74
2021/12/13 06:29:49;;;;;;;9.20;2.55;;;;;;;;;;4994070;28;20032;-75
2021/12/13 06:32:33;;;;;;;8.82;2.60;;;;;;;;;;4971247;28;20038;-75
2021/12/13 06:35:02;;;;;;;9.40;2.92;;;;;;;;;;5013431;28;20041;-74
2021/12/13 06:37:33;;;;;;;34.17;3.63;;;;;;;;;;5014918;28;20053;-73
2021/12/13 06:40:10;;;;;;;5.05;2.70;;;;;;;;;;5013994;28;20022;-74
2021/12/13 06:42:36;;;;;;;7.20;2.58;;;;;;;;;;5013432;28;20401;-74
2021/12/13 06:45:03;;;;;;;6.68;2.55;;;;;;;;;;5013615;28;20033;-74
2021/12/13 06:47:29;;;;;;;7.40;2.97;;;;;;;;;;5010729;28;20045;-74
2021/12/13 06:49:57;;;;;;;7.22;2.90;;;;;;;;;;5013514;28;20041;-74
2021/12/13 06:52:34;;;;;;;5.72;2.88;;;;;;;;;;5013497;28;20030;-74
2021/12/13 06:55:04;;;;;;;10.65;4.47;;;;;;;;;;5012945;28;20041;-74
2021/12/13 06:57:30;;;;;;;5.03;2.20;;;;;;;;;;5000460;28;20030;-75
2021/12/13 07:00:18;;;;;;;9.13;3.17;;;;;;;;;;4992345;28;20404;-75
2021/12/13 07:02:49;;;;;;;12.38;2.95;;;;;;;;;;4993355;28;20033;-73
2021/12/13 07:05:18;;;;;;;7.13;2.28;;;;;;;;;;4996251;28;20531;-74
2021/12/13 07:07:55;;;;;;;9.95;3.08;;;;;;;;;;4997420;28;20033;-74
2021/12/13 07:10:35;;;;;;;7.18;3.30;;;;;;;;;;5014355;28;20497;-75
2021/12/13 07:13:06;;;;;;;9.40;2.67;;;;;;;;;;5017199;28;20395;-73
2021/12/13 07:15:36;;;;;;;5.80;2.33;;;;;;;;;;5016609;28;20588;-74
2021/12/13 07:18:15;;;;;;;6.45;2.97;;;;;;;;;;5016204;28;20034;-74
2021/12/13 07:20:44;;;;;;;6.10;2.88;;;;;;;;;;4998935;28;20026;-73
2021/12/13 07:23:10;;;;;;;9.30;2.88;;;;;;;;;;5007812;28;20546;-74
2021/12/13 07:25:42;;;;;;;8.00;3.15;;;;;;;;;;5000717;28;20030;-75
2021/12/13 07:28:08;;;;;;;6.43;3.40;;;;;;;;;;4998083;28;20030;-74
2021/12/13 07:30:36;;;;;;;7.47;3.47;;;;;;;;;;4997460;28;20022;-74
2021/12/13 07:33:05;;;;;;;9.05;2.70;;;;;;;;;;4999116;28;20129;-74
2021/12/13 07:35:37;;;;;;;5.35;2.70;;;;;;;;;;4996941;28;20026;-74
2021/12/13 07:38:08;;;;;;;6.03;2.50;;;;;;;;;;5007403;28;20113;-73
2021/12/13 07:40:43;;;;;;;11.82;3.83;;;;;;;;;;5015742;28;20069;-75
2021/12/13 07:43:26;;;;;;;9.80;3.47;;;;;;;;;;5004435;28;20034;-74
2021/12/13 07:45:53;;;;;;;10.05;3.85;;;;;;;;;;4997296;28;20022;-74
2021/12/13 07:48:19;;;;;;;9.52;3.15;;;;;;;;;;4996897;28;20030;-73
2021/12/13 07:50:55;;;;;;;6.18;3.20;;;;;;;;;;4996870;28;20027;-74
2021/12/13 07:53:22;;;;;;;10.82;3.40;;;;;;;;;;5008150;28;20029;-74
2021/12/13 07:55:49;;;;;;;9.50;2.90;;;;;;;;;;5015293;28;20026;-74
2021/12/13 07:58:18;;;;;;;7.82;2.92;;;;;;;;;;5016914;28;20029;-74
2021/12/13 08:00:47;;;;;;;4.85;2.30;;;;;;;;;;5003172;28;20034;-74
2021/12/13 08:03:15;;;;;;;9.93;3.50;;;;;;;;;;4998836;28;20122;-73
2021/12/13 08:05:44;;;;;;;6.32;2.97;;;;;;;;;;5011765;28;20022;-74
2021/12/13 08:08:16;;;;;;;11.75;3.42;;;;;;;;;;5007719;28;20030;-73
2021/12/13 08:10:43;;;;;;;10.80;2.50;;;;;;;;;;4996361;28;20026;-73
2021/12/13 08:13:30;;;;;;;5.40;2.63;;;;;;;;;;4980825;28;20026;-74
2021/12/13 08:16:07;;;;;;;8.50;2.97;;;;;;;;;;5005723;28;20062;-75
2021/12/13 08:18:38;;;;;;;8.25;3.10;;;;;;;;;;4997070;28;20117;-75
2021/12/13 08:21:06;;;;;;;9.63;2.92;;;;;;;;;;4990861;28;20493;-77
2021/12/13 08:23:36;;;;;;;5.63;2.40;;;;;;;;;;4982753;28;20125;-77
2021/12/13 08:26:03;;;;;;;3.95;3.10;;;;;;;;;;4982798;28;20041;-75
2021/12/13 08:28:51;;;;;;;7.30;2.83;;;;;;;;;;4996096;28;20018;-76
2021/12/13 08:31:22;;;;;;;6.82;2.67;;;;;;;;;;4996814;28;20034;-75
2021/12/13 08:33:51;;;;;;;5.50;2.65;;;;;;;;;;5015660;28;20058;-75
2021/12/13 08:36:37;;;;;;;5.85;2.50;;;;;;;;;;4987037;28;20041;-75
2021/12/13 08:39:06;;;;;;;4.40;2.63;;;;;;;;;;4983555;28;20022;-73
2021/12/13 08:41:37;;;;;;;8.98;2.58;;;;;;;;;;4991209;28;20537;-76
2021/12/13 08:44:12;;;;;;;10.73;3.00;;;;;;;;;;5000688;28;20030;-76
2021/12/13 08:46:42;;;;;;;12.48;3.35;;;;;;;;;;4982671;28;20497;-77
2021/12/13 08:49:46;;;;;;;6.10;4.03;;;;;;;;;;4996703;28;20033;-75
2021/12/13 08:52:15;;;;;;;13.18;5.90;;;;;;;;;;4999805;28;20078;-73
2021/12/13 08:54:44;;;;;;;15.40;5.72;;;;;;;;;;4999766;28;20600;-75
2021/12/13 08:57:27;;;;;;;7.60;3.72;;;;;;;;;;4989324;28;20129;-75
2021/12/13 08:59:53;;;;;;;13.27;3.17;;;;;;;;;;4986189;28;20037;-74
2021/12/13 09:02:20;;;;;;;6.88;2.88;;;;;;;;;;5001560;28;20030;-74
2021/12/13 09:04:55;;;;;;;7.13;3.40;;;;;;;;;;4999312;28;20030;-76
2021/12/13 09:07:23;;;;;;;5.15;3.00;;;;;;;;;;5000136;28;20036;-74
2021/12/13 09:09:50;;;;;;;14.13;3.55;;;;;;;;;;4997003;28;20106;-75
2021/12/13 09:12:25;;;;;;;8.93;2.45;;;;;;;;;;5004035;28;20034;-77
2021/12/13 09:14:56;;;;;;;;;;;;;;;;;;5009085;28;20030;-77
2021/12/13 09:17:26;;;;;;;6.38;2.83;;;;;;;;;;5001290;28;20296;-76
2021/12/13 09:20:06;;;;;;;9.52;3.30;;;;;;;;;;5001725;28;20105;-73
2021/12/13 09:22:44;;;;;;;8.45;3.30;;;;;;;;;;5002226;28;20053;-76
2021/12/13 09:25:10;;;;;;;9.52;3.97;;;;;;;;;;5017874;28;20065;-76
2021/12/13 09:27:39;;;;;;;6.88;3.58;;;;;;;;;;5016387;28;20030;-75
2021/12/13 09:30:20;;;;;;;5.05;2.90;;;;;;;;;;4994651;28;20385;-76
2021/12/13 09:32:49;;;;;;;8.75;5.20;;;;;;;;;;4998082;28;20053;-74
2021/12/13 09:35:29;;;;;;;21.17;11.10;;;;;;;;;;5001231;28;20105;-75
2021/12/13 09:37:58;;;;;;;34.55;18.40;;;;;;;;;;5000941;28;20030;-74
2021/12/13 09:40:27;;;;;;;28.73;14.93;;;;;;;;;;4993841;28;20047;-76
2021/12/13 09:42:55;;;;;;;7.97;5.03;;;;;;;;;;4993551;28;20037;-75
2021/12/13 09:45:27;;;;;;;7.15;3.53;;;;;;;;;;4989230;28;20038;-76
2021/12/13 09:47:53;;;;;;;10.35;3.08;;;;;;;;;;4972800;28;20519;-77
2021/12/13 09:50:22;;;;;;;10.10;3.45;;;;;;;;;;4987314;28;20101;-76
2021/12/13 09:52:48;;;;;;;12.00;3.28;;;;;;;;;;4990242;28;20030;-76
2021/12/13 09:55:20;;;;;;;6.93;3.10;;;;;;;;;;5003246;28;20054;-78
2021/12/13 09:57:58;;;;;;;7.10;3.22;;;;;;;;;;4977795;28;20035;-76
2021/12/13 10:00:30;;;;;;;7.10;3.33;;;;;;;;;;4977725;28;20780;-74
2021/12/13 10:02:58;;;;;;;7.55;3.42;;;;;;;;;;4995814;28;20553;-76
2021/12/13 10:05:35;;;;;;;5.93;3.30;;;;;;;;;;4978642;28;20034;-76
2021/12/13 10:08:04;;;;;;;7.10;2.90;;;;;;;;;;4978542;28;20726;-75
2021/12/13 10:10:34;;;;;;;6.22;3.10;;;;;;;;;;4984198;28;20033;-76
2021/12/13 10:13:04;;;;;;;10.85;3.33;;;;;;;;;;4990109;28;20029;-77
2021/12/13 10:15:52;;;;;;;31.52;4.80;;;;;;;;;;4981981;28;20039;-74
2021/12/13 10:18:20;;;;;;;7.57;3.03;;;;;;;;;;4990924;28;20261;-77
2021/12/13 10:20:51;;;;;;;9.77;3.72;;;;;;;;;;5000298;28;20041;-73
2021/12/13 10:23:19;;;;;;;5.63;2.83;;;;;;;;;;5007349;28;20082;-75
2021/12/13 10:25:46;;;;;;;9.13;2.53;;;;;;;;;;5003221;28;20086;-75
2021/12/13 10:28:15;;;;;;;7.63;3.17;;;;;;;;;;4996972;28;20026;-78
2021/12/13 10:30:47;;;;;;;6.25;2.80;;;;;;;;;;4998374;28;20113;-75
2021/12/13 10:33:14;;;;;;;7.50;3.58;;;;;;;;;;4997546;28;20125;-76
2021/12/13 10:35:42;;;;;;;10.75;3.30;;;;;;;;;;5004182;28;20038;-77
2021/12/13 10:38:11;;;;;;;8.45;3.30;;;;;;;;;;5003313;28;20485;-76
2021/12/13 10:40:39;;;;;;;6.43;3.17;;;;;;;;;;5006404;28;20114;-76
2021/12/13 10:43:19;;;;;;;7.80;2.90;;;;;;;;;;5011234;28;20026;-76
2021/12/13 10:45:48;;;;;;;4.03;2.60;;;;;;;;;;5003529;28;20622;-75
2021/12/13 10:48:15;;;;;;;11.98;3.70;;;;;;;;;;4999540;28;20036;-76
2021/12/13 10:50:44;;;;;;;8.60;4.40;;;;;;;;;;4998077;28;20045;-74
2021/12/13 10:53:11;;;;;;;6.38;3.15;;;;;;;;;;5016504;28;20025;-76
2021/12/13 10:55:44;;;;;;;10.60;3.65;;;;;;;;;;5001484;28;20030;-77
2021/12/13 10:58:10;;;;;;;16.08;3.47;;;;;;;;;;5000038;28;20076;-76
2021/12/13 11:00:42;;;;;;;6.28;3.05;;;;;;;;;;5004150;28;20034;-77
2021/12/13 11:03:10;;;;;;;7.40;2.72;;;;;;;;;;4997122;28;20018;-75
2021/12/13 11:05:36;;;;;;;11.23;3.40;;;;;;;;;;4980718;28;20551;-75
2021/12/13 11:08:04;;;;;;;7.15;4.00;;;;;;;;;;4994097;28;20109;-78
2021/12/13 11:10:34;;;;;;;6.05;3.10;;;;;;;;;;4991056;28;20034;-75
2021/12/13 11:13:07;;;;;;;11.05;3.45;;;;;;;;;;4986429;28;20026;-73
2021/12/13 11:15:35;;;;;;;9.35;3.25;;;;;;;;;;4996816;28;20034;-76
2021/12/13 11:18:02;;;;;;;4.88;2.88;;;;;;;;;;4992845;28;20484;-76
2021/12/13 11:20:33;;;;;;;7.75;3.00;;;;;;;;;;4983362;28;20080;-75
2021/12/13 11:23:00;;;;;;;4.85;2.63;;;;;;;;;;4994516;28;20022;-76
2021/12/13 11:25:32;;;;;;;7.90;3.28;;;;;;;;;;4992799;28;20032;-74
2021/12/13 11:27:58;;;;;;;5.35;2.80;;;;;;;;;;5006586;28;20031;-73
2021/12/13 11:30:26;;;;;;;4.10;2.90;;;;;;;;;;4987301;28;20026;-74
2021/12/13 11:32:58;;;;;;;5.38;2.95;;;;;;;;;;5003703;28;20033;-77
2021/12/13 11:35:38;;;;;;;7.55;3.33;;;;;;;;;;4998598;28;20038;-77
2021/12/13 11:38:13;;;;;;;4.25;2.97;;;;;;;;;;5016426;28;20029;-72
2021/12/13 11:40:40;;;;;;;6.50;3.33;;;;;;;;;;5027741;28;20392;-75
2021/12/13 11:43:20;;;;;;;11.45;6.15;;;;;;;;;;5003346;28;20125;-74
2021/12/13 11:46:14;;;;;;;7.75;4.75;;;;;;;;;;5001321;28;20118;-72
2021/12/13 11:48:43;;;;;;;7.25;3.63;;;;;;;;;;5002529;28;20019;-74
2021/12/13 11:51:28;;;;;;;4.55;2.70;;;;;;;;;;5006620;28;20034;-73
2021/12/13 11:54:00;;;;;;;14.00;3.80;;;;;;;;;;5002055;28;20050;-75
2021/12/13 11:59:51;;;;;;;7.28;2.72;;;;;;;;;;5004261;28;20046;-76
2021/12/13 12:02:36;;;;;;;6.78;3.10;;;;;;;;;;5007400;28;20034;-76
2021/12/13 12:05:28;;;;;;;3.80;2.80;;;;;;;;;;5004884;28;20022;-72
2021/12/13 12:08:13;;;;;;;7.45;2.80;;;;;;;;;;4981849;28;20045;-74
2021/12/13 12:11:06;;;;;;;6.03;3.60;;;;;;;;;;5003254;28;20157;-73
2021/12/13 12:13:39;;;;;;;5.85;3.20;;;;;;;;;;5001497;28;20034;-76
2021/12/13 12:16:06;;;;;;;9.27;3.17;;;;;;;;;;5017835;28;20026;-73
2021/12/13 12:18:33;;;;;;;12.68;3.90;;;;;;;;;;5020172;28;20026;-76
2021/12/13 12:21:18;;;;;;;8.02;2.90;;;;;;;;;;5006615;28;20022;-76
2021/12/13 12:23:49;;;;;;;6.05;3.33;;;;;;;;;;5009468;28;20038;-74
2021/12/13 12:26:16;;;;;;;6.68;3.53;;;;;;;;;;5011823;28;20022;-77
2021/12/13 12:28:46;;;;;;;8.60;3.42;;;;;;;;;;4997561;28;20392;-76
2021/12/13 12:31:12;;;;;;;8.52;3.30;;;;;;;;;;5017955;28;20030;-77
2021/12/13 12:33:39;;;;;;;8.43;4.38;;;;;;;;;;5011162;28;20026;-76
2021/12/13 12:36:09;;;;;;;6.60;3.55;;;;;;;;;;4992217;28;20038;-73
2021/12/13 12:38:35;;;;;;;10.48;4.35;;;;;;;;;;5002589;28;20038;-74
2021/12/13 12:41:07;;;;;;;8.18;3.67;;;;;;;;;;5017263;28;20089;-73
2021/12/13 12:43:36;;;;;;;7.20;3.65;;;;;;;;;;5008919;28;20026;-76
2021/12/13 12:46:06;;;;;;;8.50;4.93;;;;;;;;;;4999938;28;20018;-75
2021/12/13 12:48:37;;;;;;;9.85;4.88;;;;;;;;;;4999314;28;20468;-77
2021/12/13 12:51:09;;;;;;;12.93;7.10;;;;;;;;;;5017625;28;20026;-74
2021/12/13 12:53:41;;;;;;;11.13;6.13;;;;;;;;;;5012469;28;20046;-74
2021/12/13 12:56:13;;;;;;;12.15;4.20;;;;;;;;;;5017091;28;20112;-75
2021/12/13 12:59:06;;;;;;;8.68;4.15;;;;;;;;;;5005033;28;20036;-76
2021/12/13 13:01:58;;;;;;;9.48;3.53;;;;;;;;;;4992886;28;20089;-74
2021/12/13 13:04:29;;;;;;;7.70;3.92;;;;;;;;;;5025192;28;20103;-75
2021/12/13 13:07:00;;;;;;;8.82;4.03;;;;;;;;;;4995541;28;20106;-74
2021/12/13 13:09:35;;;;;;;8.13;4.53;;;;;;;;;;4998270;28;20045;-72
2021/12/13 13:12:02;;;;;;;9.13;4.32;;;;;;;;;;4993029;28;20027;-75
2021/12/13 13:14:30;;;;;;;11.60;5.60;;;;;;;;;;4982233;28;20026;-74
2021/12/13 13:17:01;;;;;;;7.30;4.63;;;;;;;;;;4995581;28;20117;-73
2021/12/13 13:19:31;;;;;;;10.20;4.35;;;;;;;;;;4999562;28;20022;-74
2021/12/13 13:22:01;;;;;;;8.32;4.25;;;;;;;;;;4987979;28;20034;-75
2021/12/13 13:24:28;;;;;;;5.47;3.53;;;;;;;;;;4990762;28;20050;-75
2021/12/13 13:26:55;;;;;;;8.32;4.32;;;;;;;;;;4982016;28;20023;-74
2021/12/13 13:29:21;;;;;;;14.65;5.53;;;;;;;;;;4998852;28;20054;-75
2021/12/13 13:32:00;;;;;;;13.70;8.27;;;;;;;;;;4991264;28;20065;-76
2021/12/13 13:34:29;;;;;;;10.63;7.03;;;;;;;;;;4986924;28;20113;-76
2021/12/13 13:36:58;;;;;;;9.50;5.80;;;;;;;;;;4989642;28;20081;-74
2021/12/13 13:39:27;;;;;;;8.32;5.20;;;;;;;;;;4979401;28;20038;-75
2021/12/13 13:42:04;;;;;;;10.55;4.25;;;;;;;;;;4985799;28;20030;-73
2021/12/13 13:44:37;;;;;;;8.52;4.72;;;;;;;;;;4977477;28;20093;-75
2021/12/13 13:47:06;;;;;;;11.75;5.28;;;;;;;;;;4978442;28;20031;-75
2021/12/13 13:49:32;;;;;;;10.25;5.03;;;;;;;;;;4992921;28;20521;-76
2021/12/13 13:52:08;;;;;;;9.52;5.10;;;;;;;;;;4985973;28;20022;-76
2021/12/13 13:54:35;;;;;;;11.98;4.85;;;;;;;;;;4987639;28;20050;-78
2021/12/13 13:57:01;;;;;;;12.25;5.00;;;;;;;;;;4995406;28;20101;-75
2021/12/13 13:59:27;;;;;;;12.93;5.75;;;;;;;;;;4998518;28;20029;-73
2021/12/13 14:01:59;;;;;;;9.93;5.13;;;;;;;;;;5012290;28;20062;-73
2021/12/13 14:04:36;;;;;;;11.07;5.28;;;;;;;;;;4994243;28;20050;-73
2021/12/13 14:07:24;;;;;;;8.48;5.03;;;;;;;;;;4991224;28;20031;-75
2021/12/13 14:09:52;;;;;;;10.30;5.55;;;;;;;;;;4993068;28;20019;-77
2021/12/13 14:12:24;;;;;;;15.60;5.72;;;;;;;;;;4999754;28;20030;-76
2021/12/13 14:14:53;;;;;;;16.67;5.88;;;;;;;;;;5003399;28;20085;-76
2021/12/13 14:17:37;;;;;;;13.55;4.80;;;;;;;;;;4994398;28;20094;-75
2021/12/13 14:20:15;;;;;;;14.85;7.45;;;;;;;;;;4986958;28;20033;-75
2021/12/13 14:22:41;;;;;;;11.65;6.22;;;;;;;;;;4994292;28;20498;-74
2021/12/13 14:25:08;;;;;;;10.55;5.90;;;;;;;;;;4988429;28;20031;-75
2021/12/13 14:27:34;;;;;;;12.45;6.35;;;;;;;;;;4984746;28;20025;-76
2021/12/13 14:30:12;;;;;;;11.57;5.47;;;;;;;;;;4981205;28;20028;-75
2021/12/13 14:32:38;;;;;;;15.77;5.75;;;;;;;;;;4983165;28;20030;-75
2021/12/13 14:35:12;;;;;;;12.35;5.70;;;;;;;;;;4990646;28;20065;-76
2021/12/13 14:37:38;;;;;;;10.57;5.10;;;;;;;;;;4978537;28;20754;-76
2021/12/13 14:40:04;;;;;;;13.48;4.78;;;;;;;;;;4996730;28;20077;-74
2021/12/13 14:42:31;;;;;;;7.40;4.72;;;;;;;;;;4993734;28;20087;-76
2021/12/13 14:45:02;;;;;;;12.30;4.20;;;;;;;;;;4983225;28;20033;-77
2021/12/13 14:47:46;;;;;;;14.07;6.32;;;;;;;;;;4990979;28;20041;-75
2021/12/13 14:50:30;;;;;;;8.73;4.45;;;;;;;;;;5002827;28;20025;-77
2021/12/13 14:52:58;;;;;;;10.70;5.50;;;;;;;;;;5003798;28;20300;-76
2021/12/13 14:55:26;;;;;;;10.95;5.47;;;;;;;;;;5002690;28;20046;-76
2021/12/13 14:57:57;;;;;;;14.43;5.30;;;;;;;;;;5002534;28;20034;-73
2021/12/13 15:00:26;;;;;;;14.25;5.88;;;;;;;;;;4984641;28;20493;-76
2021/12/13 15:02:54;;;;;;;10.80;5.38;;;;;;;;;;4990753;28;20027;-74
2021/12/13 15:05:22;;;;;;;19.35;12.23;;;;;;;;;;4999445;28;20050;-78
2021/12/13 15:07:50;;;;;;;9.57;6.68;;;;;;;;;;4977117;28;20030;-74
2021/12/13 15:10:16;;;;;;;13.65;7.30;;;;;;;;;;4976406;28;20493;-76
2021/12/13 15:12:44;;;;;;;14.05;5.88;;;;;;;;;;4992646;28;20465;-77
2021/12/13 15:15:21;;;;;;;12.52;5.95;;;;;;;;;;4983761;28;20027;-75
2021/12/13 15:18:00;;;;;;;11.75;6.80;;;;;;;;;;4981828;28;20035;-74
2021/12/13 15:20:28;;;;;;;12.77;6.88;;;;;;;;;;4987085;28;20220;-76
2021/12/13 15:22:57;;;;;;;19.10;9.65;;;;;;;;;;4985296;28;20041;-75
2021/12/13 15:25:29;;;;;;;27.42;15.43;;;;;;;;;;4995756;28;20030;-76